sensor_id;sensor_type;location;lat;lon;timestamp;P1;durP1;ratioP1;P2;durP2;ratioP2
78871;SDS011;68247;43.514;1.502;2023-06-10T00:01:35;9.37;;;2.60;;
78871;SDS011;68247;43.514;1.502;2023-06-10T00:04:01;9.98;;;2.38;;
78871;SDS011;68247;43.514;1.502;2023-06-10T00:06:27;6.65;;;2.63;;
78871;SDS011;68247;43.514;1.502;2023-06-10T00:08:53;8.40;;;2.40;;
78871;SDS011;68247;43.514;1.502;2023-06-10T00:11:20;8.18;;;2.40;;
78871;SDS011;68247;43.514;1.502;2023-06-10T00:13:46;9.20;;;2.15;;
78871;SDS011;68247;43.514;1.502;2023-06-10T00:16:11;8.00;;;2.23;;
78871;SDS011;68247;43.514;1.502;2023-06-10T00:18:37;9.47;;;2.30;;
78871;SDS011;68247;43.514;1.502;2023-06-10T00:21:03;9.02;;;2.97;;
78871;SDS011;68247;43.514;1.502;2023-06-10T00:23:30;10.75;;;2.60;;
78871;SDS011;68247;43.514;1.502;2023-06-10T00:25:57;12.48;;;2.63;;
78871;SDS011;68247;43.514;1.502;2023-06-10T00:28:23;6.70;;;2.77;;
78871;SDS011;68247;43.514;1.502;2023-06-10T00:30:48;11.23;;;2.87;;
78871;SDS011;68247;43.514;1.502;2023-06-10T00:33:13;12.77;;;3.27;;
78871;SDS011;68247;43.514;1.502;2023-06-10T00:35:38;9.50;;;2.90;;
78871;SDS011;68247;43.514;1.502;2023-06-10T00:38:03;10.23;;;3.33;;
78871;SDS011;68247;43.514;1.502;2023-06-10T00:40:29;9.40;;;3.07;;
78871;SDS011;68247;43.514;1.502;2023-06-10T00:42:54;7.97;;;3.30;;
78871;SDS011;68247;43.514;1.502;2023-06-10T00:45:20;11.63;;;3.03;;
78871;SDS011;68247;43.514;1.502;2023-06-10T00:47:45;9.23;;;2.60;;
78871;SDS011;68247;43.514;1.502;2023-06-10T00:50:10;10.60;;;2.90;;
78871;SDS011;68247;43.514;1.502;2023-06-10T00:52:36;9.33;;;3.17;;
78871;SDS011;68247;43.514;1.502;2023-06-10T00:55:01;10.07;;;3.40;;
78871;SDS011;68247;43.514;1.502;2023-06-10T00:57:26;8.57;;;2.97;;
78871;SDS011;68247;43.514;1.502;2023-06-10T00:59:52;11.20;;;2.57;;
78871;SDS011;68247;43.514;1.502;2023-06-10T01:02:17;6.70;;;2.57;;
78871;SDS011;68247;43.514;1.502;2023-06-10T01:04:42;6.73;;;2.10;;
78871;SDS011;68247;43.514;1.502;2023-06-10T01:09:40;8.30;;;2.37;;
78871;SDS011;68247;43.514;1.502;2023-06-10T01:12:20;10.38;;;2.28;;
78871;SDS011;68247;43.514;1.502;2023-06-10T01:14:50;10.40;;;2.40;;
78871;SDS011;68247;43.514;1.502;2023-06-10T01:17:16;7.63;;;2.10;;
78871;SDS011;68247;43.514;1.502;2023-06-10T01:19:43;7.53;;;1.93;;
78871;SDS011;68247;43.514;1.502;2023-06-10T01:22:09;6.93;;;2.05;;
78871;SDS011;68247;43.514;1.502;2023-06-10T01:24:35;5.78;;;1.80;;
78871;SDS011;68247;43.514;1.502;2023-06-10T01:27:01;5.53;;;1.60;;
78871;SDS011;68247;43.514;1.502;2023-06-10T01:29:33;5.22;;;1.90;;
78871;SDS011;68247;43.514;1.502;2023-06-10T01:32:12;9.00;;;1.65;;
78871;SDS011;68247;43.514;1.502;2023-06-10T01:34:40;6.38;;;1.40;;
78871;SDS011;68247;43.514;1.502;2023-06-10T01:37:07;5.65;;;1.67;;
78871;SDS011;68247;43.514;1.502;2023-06-10T01:39:33;7.43;;;2.03;;
78871;SDS011;68247;43.514;1.502;2023-06-10T01:41:59;8.60;;;1.87;;
78871;SDS011;68247;43.514;1.502;2023-06-10T01:44:25;6.45;;;1.98;;
78871;SDS011;68247;43.514;1.502;2023-06-10T01:46:50;7.57;;;2.20;;
78871;SDS011;68247;43.514;1.502;2023-06-10T01:49:15;7.53;;;2.10;;
78871;SDS011;68247;43.514;1.502;2023-06-10T01:51:41;7.22;;;1.90;;
78871;SDS011;68247;43.514;1.502;2023-06-10T01:54:06;7.33;;;2.20;;
78871;SDS011;68247;43.514;1.502;2023-06-10T01:56:32;6.73;;;2.10;;
78871;SDS011;68247;43.514;1.502;2023-06-10T01:58:57;4.70;;;2.00;;
78871;SDS011;68247;43.514;1.502;2023-06-10T02:01:27;9.88;;;2.38;;
78871;SDS011;68247;43.514;1.502;2023-06-10T02:03:52;15.35;;;2.85;;
78871;SDS011;68247;43.514;1.502;2023-06-10T02:06:18;10.63;;;2.67;;
78871;SDS011;68247;43.514;1.502;2023-06-10T02:08:43;11.07;;;2.83;;
78871;SDS011;68247;43.514;1.502;2023-06-10T02:11:08;8.50;;;3.20;;
78871;SDS011;68247;43.514;1.502;2023-06-10T02:13:34;8.93;;;2.77;;
78871;SDS011;68247;43.514;1.502;2023-06-10T02:15:59;10.07;;;2.70;;
78871;SDS011;68247;43.514;1.502;2023-06-10T02:18:25;6.73;;;2.57;;
78871;SDS011;68247;43.514;1.502;2023-06-10T02:20:52;7.18;;;2.70;;
78871;SDS011;68247;43.514;1.502;2023-06-10T02:23:17;11.43;;;2.63;;
78871;SDS011;68247;43.514;1.502;2023-06-10T02:25:42;7.77;;;2.90;;
78871;SDS011;68247;43.514;1.502;2023-06-10T02:28:07;13.07;;;2.50;;
78871;SDS011;68247;43.514;1.502;2023-06-10T02:30:33;9.77;;;2.50;;
78871;SDS011;68247;43.514;1.502;2023-06-10T02:32:58;6.03;;;1.90;;
78871;SDS011;68247;43.514;1.502;2023-06-10T02:35:24;6.40;;;2.00;;
78871;SDS011;68247;43.514;1.502;2023-06-10T02:37:49;6.90;;;2.47;;
78871;SDS011;68247;43.514;1.502;2023-06-10T02:40:15;8.68;;;2.33;;
78871;SDS011;68247;43.514;1.502;2023-06-10T02:42:40;10.30;;;2.23;;
78871;SDS011;68247;43.514;1.502;2023-06-10T02:45:06;11.73;;;2.20;;
78871;SDS011;68247;43.514;1.502;2023-06-10T02:47:31;5.78;;;2.05;;
78871;SDS011;68247;43.514;1.502;2023-06-10T02:49:56;8.37;;;2.20;;
78871;SDS011;68247;43.514;1.502;2023-06-10T02:52:22;9.20;;;2.40;;
78871;SDS011;68247;43.514;1.502;2023-06-10T02:54:47;7.03;;;2.43;;
78871;SDS011;68247;43.514;1.502;2023-06-10T02:57:13;6.97;;;2.10;;
78871;SDS011;68247;43.514;1.502;2023-06-10T02:59:39;13.30;;;2.33;;
78871;SDS011;68247;43.514;1.502;2023-06-10T03:02:05;8.77;;;2.17;;
78871;SDS011;68247;43.514;1.502;2023-06-10T03:04:30;7.07;;;2.47;;
78871;SDS011;68247;43.514;1.502;2023-06-10T03:06:55;7.73;;;2.50;;
78871;SDS011;68247;43.514;1.502;2023-06-10T03:09:21;7.10;;;2.53;;
78871;SDS011;68247;43.514;1.502;2023-06-10T03:11:46;9.67;;;2.80;;
78871;SDS011;68247;43.514;1.502;2023-06-10T03:14:11;9.40;;;2.60;;
78871;SDS011;68247;43.514;1.502;2023-06-10T03:16:36;7.27;;;2.70;;
78871;SDS011;68247;43.514;1.502;2023-06-10T03:19:05;9.57;;;2.53;;
78871;SDS011;68247;43.514;1.502;2023-06-10T03:21:31;9.35;;;2.50;;
78871;SDS011;68247;43.514;1.502;2023-06-10T03:23:56;11.17;;;2.90;;
78871;SDS011;68247;43.514;1.502;2023-06-10T03:26:21;9.17;;;2.63;;
78871;SDS011;68247;43.514;1.502;2023-06-10T03:28:47;7.50;;;2.70;;
78871;SDS011;68247;43.514;1.502;2023-06-10T03:31:12;9.17;;;3.00;;
78871;SDS011;68247;43.514;1.502;2023-06-10T03:33:37;9.13;;;2.27;;
78871;SDS011;68247;43.514;1.502;2023-06-10T03:36:04;6.53;;;2.28;;
78871;SDS011;68247;43.514;1.502;2023-06-10T03:38:29;8.13;;;2.45;;
78871;SDS011;68247;43.514;1.502;2023-06-10T03:40:54;6.33;;;2.03;;
78871;SDS011;68247;43.514;1.502;2023-06-10T03:43:20;8.40;;;2.30;;
78871;SDS011;68247;43.514;1.502;2023-06-10T03:45:45;11.00;;;2.43;;
78871;SDS011;68247;43.514;1.502;2023-06-10T03:48:11;10.23;;;2.50;;
78871;SDS011;68247;43.514;1.502;2023-06-10T03:50:36;9.07;;;2.53;;
78871;SDS011;68247;43.514;1.502;2023-06-10T03:53:02;8.47;;;3.07;;
78871;SDS011;68247;43.514;1.502;2023-06-10T03:55:27;9.13;;;3.13;;
78871;SDS011;68247;43.514;1.502;2023-06-10T03:57:52;9.23;;;2.93;;
78871;SDS011;68247;43.514;1.502;2023-06-10T04:00:18;13.97;;;3.27;;
78871;SDS011;68247;43.514;1.502;2023-06-10T04:02:44;12.07;;;3.72;;
78871;SDS011;68247;43.514;1.502;2023-06-10T04:05:14;19.40;;;4.60;;
78871;SDS011;68247;43.514;1.502;2023-06-10T04:07:40;25.67;;;5.17;;
78871;SDS011;68247;43.514;1.502;2023-06-10T04:10:07;19.65;;;5.47;;
78871;SDS011;68247;43.514;1.502;2023-06-10T04:12:33;29.80;;;5.65;;
78871;SDS011;68247;43.514;1.502;2023-06-10T04:14:58;19.17;;;5.13;;
78871;SDS011;68247;43.514;1.502;2023-06-10T04:17:24;33.33;;;6.38;;
78871;SDS011;68247;43.514;1.502;2023-06-10T04:19:50;67.00;;;7.80;;
78871;SDS011;68247;43.514;1.502;2023-06-10T04:22:15;67.33;;;8.03;;
78871;SDS011;68247;43.514;1.502;2023-06-10T04:24:41;34.67;;;5.97;;
78871;SDS011;68247;43.514;1.502;2023-06-10T04:27:06;37.90;;;6.32;;
78871;SDS011;68247;43.514;1.502;2023-06-10T04:29:31;28.87;;;5.63;;
78871;SDS011;68247;43.514;1.502;2023-06-10T04:31:57;32.40;;;6.30;;
78871;SDS011;68247;43.514;1.502;2023-06-10T04:34:22;35.17;;;6.50;;
78871;SDS011;68247;43.514;1.502;2023-06-10T04:36:48;24.17;;;5.17;;
78871;SDS011;68247;43.514;1.502;2023-06-10T04:39:13;17.33;;;4.60;;
78871;SDS011;68247;43.514;1.502;2023-06-10T04:41:38;13.60;;;4.13;;
78871;SDS011;68247;43.514;1.502;2023-06-10T04:44:03;15.20;;;4.43;;
78871;SDS011;68247;43.514;1.502;2023-06-10T04:46:29;14.43;;;4.07;;
78871;SDS011;68247;43.514;1.502;2023-06-10T04:48:55;13.98;;;3.75;;
78871;SDS011;68247;43.514;1.502;2023-06-10T04:51:21;13.17;;;3.73;;
78871;SDS011;68247;43.514;1.502;2023-06-10T04:53:46;13.47;;;4.23;;
78871;SDS011;68247;43.514;1.502;2023-06-10T04:56:11;12.40;;;3.53;;
78871;SDS011;68247;43.514;1.502;2023-06-10T04:58:36;10.33;;;3.57;;
78871;SDS011;68247;43.514;1.502;2023-06-10T05:01:02;10.40;;;4.00;;
78871;SDS011;68247;43.514;1.502;2023-06-10T05:03:28;11.95;;;3.95;;
78871;SDS011;68247;43.514;1.502;2023-06-10T05:05:53;13.77;;;3.97;;
78871;SDS011;68247;43.514;1.502;2023-06-10T05:08:18;10.17;;;3.93;;
78871;SDS011;68247;43.514;1.502;2023-06-10T05:10:43;12.53;;;4.17;;
78871;SDS011;68247;43.514;1.502;2023-06-10T05:13:09;16.17;;;4.60;;
78871;SDS011;68247;43.514;1.502;2023-06-10T05:15:34;18.43;;;4.63;;
78871;SDS011;68247;43.514;1.502;2023-06-10T05:17:59;13.37;;;4.63;;
78871;SDS011;68247;43.514;1.502;2023-06-10T05:20:27;14.52;;;4.70;;
78871;SDS011;68247;43.514;1.502;2023-06-10T05:22:53;13.95;;;4.47;;
78871;SDS011;68247;43.514;1.502;2023-06-10T05:25:19;12.10;;;4.30;;
78871;SDS011;68247;43.514;1.502;2023-06-10T05:27:44;15.63;;;4.35;;
78871;SDS011;68247;43.514;1.502;2023-06-10T05:30:10;14.63;;;4.23;;
78871;SDS011;68247;43.514;1.502;2023-06-10T05:32:35;14.93;;;4.20;;
78871;SDS011;68247;43.514;1.502;2023-06-10T05:35:00;13.13;;;4.47;;
78871;SDS011;68247;43.514;1.502;2023-06-10T05:37:26;13.82;;;4.20;;
78871;SDS011;68247;43.514;1.502;2023-06-10T05:39:51;13.87;;;4.53;;
78871;SDS011;68247;43.514;1.502;2023-06-10T05:42:17;15.40;;;5.53;;
78871;SDS011;68247;43.514;1.502;2023-06-10T05:44:42;14.90;;;4.60;;
78871;SDS011;68247;43.514;1.502;2023-06-10T05:47:08;13.80;;;4.15;;
78871;SDS011;68247;43.514;1.502;2023-06-10T05:49:33;16.33;;;4.60;;
78871;SDS011;68247;43.514;1.502;2023-06-10T05:51:58;10.80;;;3.73;;
78871;SDS011;68247;43.514;1.502;2023-06-10T05:54:24;14.60;;;4.30;;
78871;SDS011;68247;43.514;1.502;2023-06-10T05:56:49;13.07;;;4.40;;
78871;SDS011;68247;43.514;1.502;2023-06-10T05:59:15;15.33;;;4.63;;
78871;SDS011;68247;43.514;1.502;2023-06-10T06:01:40;12.43;;;4.77;;
78871;SDS011;68247;43.514;1.502;2023-06-10T06:04:05;15.90;;;4.63;;
78871;SDS011;68247;43.514;1.502;2023-06-10T06:06:30;12.63;;;4.90;;
78871;SDS011;68247;43.514;1.502;2023-06-10T06:08:56;12.93;;;4.33;;
78871;SDS011;68247;43.514;1.502;2023-06-10T06:11:21;11.80;;;4.37;;
78871;SDS011;68247;43.514;1.502;2023-06-10T06:13:47;15.40;;;4.40;;
78871;SDS011;68247;43.514;1.502;2023-06-10T06:16:13;11.02;;;4.30;;
78871;SDS011;68247;43.514;1.502;2023-06-10T06:18:38;15.77;;;4.67;;
78871;SDS011;68247;43.514;1.502;2023-06-10T06:21:04;11.73;;;4.67;;
78871;SDS011;68247;43.514;1.502;2023-06-10T06:23:29;17.90;;;5.20;;
78871;SDS011;68247;43.514;1.502;2023-06-10T06:25:55;12.67;;;4.17;;
78871;SDS011;68247;43.514;1.502;2023-06-10T06:28:21;12.73;;;4.60;;
78871;SDS011;68247;43.514;1.502;2023-06-10T06:30:47;13.75;;;5.00;;
78871;SDS011;68247;43.514;1.502;2023-06-10T06:33:13;18.17;;;5.57;;
78871;SDS011;68247;43.514;1.502;2023-06-10T06:35:38;10.63;;;4.47;;
78871;SDS011;68247;43.514;1.502;2023-06-10T06:38:03;12.57;;;4.57;;
78871;SDS011;68247;43.514;1.502;2023-06-10T06:40:29;15.45;;;3.95;;
78871;SDS011;68247;43.514;1.502;2023-06-10T06:42:54;12.80;;;3.87;;
78871;SDS011;68247;43.514;1.502;2023-06-10T06:45:20;12.07;;;4.43;;
78871;SDS011;68247;43.514;1.502;2023-06-10T06:47:45;11.10;;;4.00;;
78871;SDS011;68247;43.514;1.502;2023-06-10T06:50:10;12.30;;;4.07;;
78871;SDS011;68247;43.514;1.502;2023-06-10T06:52:36;12.23;;;4.07;;
78871;SDS011;68247;43.514;1.502;2023-06-10T06:55:01;10.53;;;3.70;;
78871;SDS011;68247;43.514;1.502;2023-06-10T06:57:27;13.70;;;4.47;;
78871;SDS011;68247;43.514;1.502;2023-06-10T06:59:52;13.03;;;4.27;;
78871;SDS011;68247;43.514;1.502;2023-06-10T07:02:17;13.27;;;4.40;;
78871;SDS011;68247;43.514;1.502;2023-06-10T07:04:44;10.93;;;3.70;;
78871;SDS011;68247;43.514;1.502;2023-06-10T07:07:10;11.52;;;4.10;;
78871;SDS011;68247;43.514;1.502;2023-06-10T07:09:36;9.50;;;4.20;;
78871;SDS011;68247;43.514;1.502;2023-06-10T07:12:02;12.52;;;4.60;;
78871;SDS011;68247;43.514;1.502;2023-06-10T07:14:27;15.67;;;4.97;;
78871;SDS011;68247;43.514;1.502;2023-06-10T07:16:52;14.67;;;4.90;;
78871;SDS011;68247;43.514;1.502;2023-06-10T07:19:18;13.97;;;4.47;;
78871;SDS011;68247;43.514;1.502;2023-06-10T07:21:43;17.95;;;4.78;;
78871;SDS011;68247;43.514;1.502;2023-06-10T07:24:08;11.83;;;3.73;;
78871;SDS011;68247;43.514;1.502;2023-06-10T07:26:34;12.00;;;4.77;;
78871;SDS011;68247;43.514;1.502;2023-06-10T07:28:59;8.80;;;3.70;;
78871;SDS011;68247;43.514;1.502;2023-06-10T07:31:24;12.33;;;3.53;;
78871;SDS011;68247;43.514;1.502;2023-06-10T07:33:50;10.80;;;4.13;;
78871;SDS011;68247;43.514;1.502;2023-06-10T07:36:15;11.43;;;3.67;;
78871;SDS011;68247;43.514;1.502;2023-06-10T07:38:40;8.13;;;3.47;;
78871;SDS011;68247;43.514;1.502;2023-06-10T07:41:07;7.75;;;3.35;;
78871;SDS011;68247;43.514;1.502;2023-06-10T07:43:32;10.70;;;4.00;;
78871;SDS011;68247;43.514;1.502;2023-06-10T07:45:57;10.33;;;3.43;;
78871;SDS011;68247;43.514;1.502;2023-06-10T07:48:23;7.40;;;3.60;;
78871;SDS011;68247;43.514;1.502;2023-06-10T07:50:48;8.40;;;3.87;;
78871;SDS011;68247;43.514;1.502;2023-06-10T07:53:13;8.43;;;3.33;;
78871;SDS011;68247;43.514;1.502;2023-06-10T07:55:38;6.80;;;3.50;;
78871;SDS011;68247;43.514;1.502;2023-06-10T07:58:04;9.70;;;3.37;;
78871;SDS011;68247;43.514;1.502;2023-06-10T08:00:29;9.23;;;3.60;;
78871;SDS011;68247;43.514;1.502;2023-06-10T08:02:54;8.53;;;3.50;;
78871;SDS011;68247;43.514;1.502;2023-06-10T08:05:21;9.60;;;3.10;;
78871;SDS011;68247;43.514;1.502;2023-06-10T08:07:46;10.40;;;3.38;;
78871;SDS011;68247;43.514;1.502;2023-06-10T08:10:11;8.50;;;2.73;;
78871;SDS011;68247;43.514;1.502;2023-06-10T08:12:36;6.67;;;2.73;;
78871;SDS011;68247;43.514;1.502;2023-06-10T08:15:02;4.50;;;2.47;;
78871;SDS011;68247;43.514;1.502;2023-06-10T08:17:29;6.22;;;2.67;;
78871;SDS011;68247;43.514;1.502;2023-06-10T08:19:54;4.83;;;2.33;;
78871;SDS011;68247;43.514;1.502;2023-06-10T08:22:20;4.90;;;2.43;;
78871;SDS011;68247;43.514;1.502;2023-06-10T08:24:45;5.20;;;2.17;;
78871;SDS011;68247;43.514;1.502;2023-06-10T08:27:10;5.30;;;2.27;;
78871;SDS011;68247;43.514;1.502;2023-06-10T08:29:35;4.00;;;2.30;;
78871;SDS011;68247;43.514;1.502;2023-06-10T08:32:01;5.35;;;2.75;;
78871;SDS011;68247;43.514;1.502;2023-06-10T08:34:26;4.73;;;2.60;;
78871;SDS011;68247;43.514;1.502;2023-06-10T08:36:51;4.53;;;2.30;;
78871;SDS011;68247;43.514;1.502;2023-06-10T08:39:20;7.45;;;2.20;;
78871;SDS011;68247;43.514;1.502;2023-06-10T08:41:48;5.90;;;2.73;;
78871;SDS011;68247;43.514;1.502;2023-06-10T08:44:16;7.28;;;2.50;;
78871;SDS011;68247;43.514;1.502;2023-06-10T08:46:45;5.10;;;2.13;;
78871;SDS011;68247;43.514;1.502;2023-06-10T08:49:10;6.53;;;3.03;;
78871;SDS011;68247;43.514;1.502;2023-06-10T08:51:39;6.55;;;2.60;;
78871;SDS011;68247;43.514;1.502;2023-06-10T08:54:09;5.15;;;2.50;;
78871;SDS011;68247;43.514;1.502;2023-06-10T08:56:37;5.47;;;2.50;;
78871;SDS011;68247;43.514;1.502;2023-06-10T08:59:03;5.60;;;2.30;;
78871;SDS011;68247;43.514;1.502;2023-06-10T09:01:30;4.03;;;2.13;;
78871;SDS011;68247;43.514;1.502;2023-06-10T09:03:55;6.03;;;2.53;;
78871;SDS011;68247;43.514;1.502;2023-06-10T09:06:21;7.10;;;2.47;;
78871;SDS011;68247;43.514;1.502;2023-06-10T09:08:47;5.53;;;2.40;;
78871;SDS011;68247;43.514;1.502;2023-06-10T09:11:12;4.57;;;2.30;;
78871;SDS011;68247;43.514;1.502;2023-06-10T09:13:37;5.33;;;2.60;;
78871;SDS011;68247;43.514;1.502;2023-06-10T09:16:03;7.77;;;3.17;;
78871;SDS011;68247;43.514;1.502;2023-06-10T09:18:28;4.70;;;2.60;;
78871;SDS011;68247;43.514;1.502;2023-06-10T09:20:53;5.47;;;2.23;;
78871;SDS011;68247;43.514;1.502;2023-06-10T09:23:19;7.17;;;2.40;;
78871;SDS011;68247;43.514;1.502;2023-06-10T09:25:44;6.18;;;2.10;;
78871;SDS011;68247;43.514;1.502;2023-06-10T09:28:13;5.00;;;2.40;;
78871;SDS011;68247;43.514;1.502;2023-06-10T09:30:38;4.50;;;2.50;;
78871;SDS011;68247;43.514;1.502;2023-06-10T09:33:09;3.77;;;2.30;;
78871;SDS011;68247;43.514;1.502;2023-06-10T09:35:34;4.60;;;2.17;;
78871;SDS011;68247;43.514;1.502;2023-06-10T09:38:00;7.57;;;2.20;;
78871;SDS011;68247;43.514;1.502;2023-06-10T09:40:26;4.95;;;2.38;;
78871;SDS011;68247;43.514;1.502;2023-06-10T09:42:56;4.65;;;2.10;;
78871;SDS011;68247;43.514;1.502;2023-06-10T09:45:22;5.53;;;2.27;;
78871;SDS011;68247;43.514;1.502;2023-06-10T09:47:52;5.53;;;2.50;;
78871;SDS011;68247;43.514;1.502;2023-06-10T09:50:18;5.65;;;2.45;;
78871;SDS011;68247;43.514;1.502;2023-06-10T09:52:44;5.70;;;2.20;;
78871;SDS011;68247;43.514;1.502;2023-06-10T09:55:10;5.32;;;2.22;;
78871;SDS011;68247;43.514;1.502;2023-06-10T09:57:36;3.67;;;2.20;;
78871;SDS011;68247;43.514;1.502;2023-06-10T10:00:10;5.80;;;2.30;;
78871;SDS011;68247;43.514;1.502;2023-06-10T10:02:57;4.28;;;2.38;;
78871;SDS011;68247;43.514;1.502;2023-06-10T10:05:21;5.13;;;2.20;;
78871;SDS011;68247;43.514;1.502;2023-06-10T10:07:47;5.18;;;2.10;;
78871;SDS011;68247;43.514;1.502;2023-06-10T10:10:13;4.67;;;2.17;;
78871;SDS011;68247;43.514;1.502;2023-06-10T10:12:39;4.80;;;2.00;;
78871;SDS011;68247;43.514;1.502;2023-06-10T10:15:06;4.60;;;2.17;;
78871;SDS011;68247;43.514;1.502;2023-06-10T10:17:33;4.93;;;2.00;;
78871;SDS011;68247;43.514;1.502;2023-06-10T10:20:02;3.25;;;1.67;;
78871;SDS011;68247;43.514;1.502;2023-06-10T10:22:29;4.68;;;1.85;;
78871;SDS011;68247;43.514;1.502;2023-06-10T10:24:56;4.22;;;2.33;;
78871;SDS011;68247;43.514;1.502;2023-06-10T10:27:26;3.40;;;1.90;;
78871;SDS011;68247;43.514;1.502;2023-06-10T10:29:52;5.53;;;1.70;;
78871;SDS011;68247;43.514;1.502;2023-06-10T10:32:18;5.22;;;1.92;;
78871;SDS011;68247;43.514;1.502;2023-06-10T10:34:50;4.15;;;1.75;;
78871;SDS011;68247;43.514;1.502;2023-06-10T10:37:17;3.90;;;2.33;;
78871;SDS011;68247;43.514;1.502;2023-06-10T10:39:43;4.33;;;1.73;;
78871;SDS011;68247;43.514;1.502;2023-06-10T10:42:08;4.10;;;1.90;;
78871;SDS011;68247;43.514;1.502;2023-06-10T10:44:35;3.60;;;2.03;;
78871;SDS011;68247;43.514;1.502;2023-06-10T10:47:02;5.87;;;1.90;;
78871;SDS011;68247;43.514;1.502;2023-06-10T10:49:28;3.70;;;1.85;;
78871;SDS011;68247;43.514;1.502;2023-06-10T10:51:59;4.53;;;1.77;;
78871;SDS011;68247;43.514;1.502;2023-06-10T10:54:28;6.28;;;1.70;;
78871;SDS011;68247;43.514;1.502;2023-06-10T10:57:14;3.27;;;1.40;;
78871;SDS011;68247;43.514;1.502;2023-06-10T10:59:43;3.67;;;1.77;;
78871;SDS011;68247;43.514;1.502;2023-06-10T11:02:09;3.47;;;1.77;;
78871;SDS011;68247;43.514;1.502;2023-06-10T11:04:34;3.63;;;1.80;;
78871;SDS011;68247;43.514;1.502;2023-06-10T11:07:05;2.90;;;1.43;;
78871;SDS011;68247;43.514;1.502;2023-06-10T11:09:31;3.63;;;1.65;;
78871;SDS011;68247;43.514;1.502;2023-06-10T11:11:57;3.73;;;1.70;;
78871;SDS011;68247;43.514;1.502;2023-06-10T11:14:26;8.13;;;5.13;;
78871;SDS011;68247;43.514;1.502;2023-06-10T11:16:53;3.60;;;1.80;;
78871;SDS011;68247;43.514;1.502;2023-06-10T11:19:37;3.80;;;2.00;;
78871;SDS011;68247;43.514;1.502;2023-06-10T11:22:05;4.00;;;1.90;;
78871;SDS011;68247;43.514;1.502;2023-06-10T11:24:31;3.50;;;1.80;;
78871;SDS011;68247;43.514;1.502;2023-06-10T11:29:54;2.90;;;1.55;;
78871;SDS011;68247;43.514;1.502;2023-06-10T11:32:20;4.10;;;2.00;;
78871;SDS011;68247;43.514;1.502;2023-06-10T11:34:47;3.03;;;1.67;;
78871;SDS011;68247;43.514;1.502;2023-06-10T11:37:16;4.68;;;1.85;;
78871;SDS011;68247;43.514;1.502;2023-06-10T11:39:42;3.27;;;1.83;;
78871;SDS011;68247;43.514;1.502;2023-06-10T11:42:07;3.47;;;1.88;;
78871;SDS011;68247;43.514;1.502;2023-06-10T11:44:33;4.20;;;2.10;;
78871;SDS011;68247;43.514;1.502;2023-06-10T11:47:02;3.55;;;1.50;;
78871;SDS011;68247;43.514;1.502;2023-06-10T11:49:27;3.33;;;1.83;;
78871;SDS011;68247;43.514;1.502;2023-06-10T11:51:53;3.50;;;1.60;;
78871;SDS011;68247;43.514;1.502;2023-06-10T11:54:18;3.43;;;1.60;;
78871;SDS011;68247;43.514;1.502;2023-06-10T11:56:44;2.67;;;1.17;;
78871;SDS011;68247;43.514;1.502;2023-06-10T11:59:09;3.90;;;1.60;;
78871;SDS011;68247;43.514;1.502;2023-06-10T12:01:35;4.40;;;1.80;;
78871;SDS011;68247;43.514;1.502;2023-06-10T12:04:11;2.50;;;1.40;;
78871;SDS011;68247;43.514;1.502;2023-06-10T12:06:44;2.60;;;1.60;;
78871;SDS011;68247;43.514;1.502;2023-06-10T12:09:24;3.58;;;1.60;;
78871;SDS011;68247;43.514;1.502;2023-06-10T12:11:50;3.38;;;1.52;;
78871;SDS011;68247;43.514;1.502;2023-06-10T12:14:16;2.90;;;1.83;;
78871;SDS011;68247;43.514;1.502;2023-06-10T12:16:48;2.73;;;1.80;;
78871;SDS011;68247;43.514;1.502;2023-06-10T12:19:13;2.95;;;1.60;;
78871;SDS011;68247;43.514;1.502;2023-06-10T12:21:38;2.40;;;1.43;;
78871;SDS011;68247;43.514;1.502;2023-06-10T12:29:02;3.83;;;1.70;;
78871;SDS011;68247;43.514;1.502;2023-06-10T12:31:27;3.07;;;1.97;;
78871;SDS011;68247;43.514;1.502;2023-06-10T12:34:07;4.17;;;1.90;;
78871;SDS011;68247;43.514;1.502;2023-06-10T12:36:32;3.42;;;1.80;;
78871;SDS011;68247;43.514;1.502;2023-06-10T12:39:02;6.82;;;2.35;;
78871;SDS011;68247;43.514;1.502;2023-06-10T12:41:28;10.35;;;2.40;;
78871;SDS011;68247;43.514;1.502;2023-06-10T12:43:54;3.50;;;2.03;;
78871;SDS011;68247;43.514;1.502;2023-06-10T12:46:19;3.03;;;1.67;;
78871;SDS011;68247;43.514;1.502;2023-06-10T12:48:50;3.80;;;1.70;;
78871;SDS011;68247;43.514;1.502;2023-06-10T12:51:19;5.30;;;1.88;;
78871;SDS011;68247;43.514;1.502;2023-06-10T12:53:45;5.00;;;1.53;;
78871;SDS011;68247;43.514;1.502;2023-06-10T12:56:10;4.33;;;1.50;;
78871;SDS011;68247;43.514;1.502;2023-06-10T12:58:35;3.10;;;1.60;;
78871;SDS011;68247;43.514;1.502;2023-06-10T13:01:01;4.20;;;1.70;;
78871;SDS011;68247;43.514;1.502;2023-06-10T13:03:26;3.63;;;1.80;;
78871;SDS011;68247;43.514;1.502;2023-06-10T13:05:51;14.97;;;3.33;;
78871;SDS011;68247;43.514;1.502;2023-06-10T13:08:16;4.40;;;1.90;;
78871;SDS011;68247;43.514;1.502;2023-06-10T13:10:42;11.47;;;2.97;;
78871;SDS011;68247;43.514;1.502;2023-06-10T13:13:07;5.17;;;2.07;;
78871;SDS011;68247;43.514;1.502;2023-06-10T13:15:34;9.25;;;5.45;;
78871;SDS011;68247;43.514;1.502;2023-06-10T13:18:05;5.05;;;2.00;;
78871;SDS011;68247;43.514;1.502;2023-06-10T13:20:31;7.57;;;4.93;;
78871;SDS011;68247;43.514;1.502;2023-06-10T13:22:56;4.63;;;1.80;;
78871;SDS011;68247;43.514;1.502;2023-06-10T13:25:21;3.00;;;1.50;;
78871;SDS011;68247;43.514;1.502;2023-06-10T13:27:46;3.30;;;1.73;;
78871;SDS011;68247;43.514;1.502;2023-06-10T13:30:12;4.10;;;1.83;;
78871;SDS011;68247;43.514;1.502;2023-06-10T13:32:37;3.00;;;2.00;;
78871;SDS011;68247;43.514;1.502;2023-06-10T13:35:03;3.20;;;1.90;;
78871;SDS011;68247;43.514;1.502;2023-06-10T13:37:28;2.90;;;1.73;;
78871;SDS011;68247;43.514;1.502;2023-06-10T13:39:54;3.20;;;1.30;;
78871;SDS011;68247;43.514;1.502;2023-06-10T13:42:20;3.85;;;1.80;;
78871;SDS011;68247;43.514;1.502;2023-06-10T13:44:45;3.20;;;1.50;;
78871;SDS011;68247;43.514;1.502;2023-06-10T13:47:12;3.42;;;1.77;;
78871;SDS011;68247;43.514;1.502;2023-06-10T13:49:37;2.70;;;1.87;;
78871;SDS011;68247;43.514;1.502;2023-06-10T13:52:03;3.80;;;2.17;;
78871;SDS011;68247;43.514;1.502;2023-06-10T13:54:28;5.27;;;2.20;;
78871;SDS011;68247;43.514;1.502;2023-06-10T13:56:53;2.80;;;1.80;;
78871;SDS011;68247;43.514;1.502;2023-06-10T13:59:19;3.08;;;1.80;;
78871;SDS011;68247;43.514;1.502;2023-06-10T14:01:44;3.03;;;1.90;;
78871;SDS011;68247;43.514;1.502;2023-06-10T14:04:10;3.43;;;1.60;;
78871;SDS011;68247;43.514;1.502;2023-06-10T14:06:36;3.15;;;1.67;;
78871;SDS011;68247;43.514;1.502;2023-06-10T14:09:01;3.27;;;1.50;;
78871;SDS011;68247;43.514;1.502;2023-06-10T14:11:26;2.67;;;1.40;;
78871;SDS011;68247;43.514;1.502;2023-06-10T14:13:51;3.23;;;2.10;;
78871;SDS011;68247;43.514;1.502;2023-06-10T14:16:17;3.47;;;1.77;;
78871;SDS011;68247;43.514;1.502;2023-06-10T14:18:42;3.40;;;1.97;;
78871;SDS011;68247;43.514;1.502;2023-06-10T14:21:07;3.30;;;2.20;;
78871;SDS011;68247;43.514;1.502;2023-06-10T14:23:33;3.70;;;1.50;;
78871;SDS011;68247;43.514;1.502;2023-06-10T14:25:58;2.83;;;1.50;;
78871;SDS011;68247;43.514;1.502;2023-06-10T14:28:24;2.80;;;1.80;;
78871;SDS011;68247;43.514;1.502;2023-06-10T14:30:51;2.80;;;1.65;;
78871;SDS011;68247;43.514;1.502;2023-06-10T14:33:16;3.83;;;2.47;;
78871;SDS011;68247;43.514;1.502;2023-06-10T14:35:41;3.47;;;1.60;;
78871;SDS011;68247;43.514;1.502;2023-06-10T14:38:08;3.83;;;2.13;;
78871;SDS011;68247;43.514;1.502;2023-06-10T14:40:33;3.30;;;2.00;;
78871;SDS011;68247;43.514;1.502;2023-06-10T14:42:58;3.43;;;1.90;;
78871;SDS011;68247;43.514;1.502;2023-06-10T14:45:25;3.20;;;2.13;;
78871;SDS011;68247;43.514;1.502;2023-06-10T14:47:50;3.30;;;2.10;;